sensor_id;sensor_type;location;lat;lon;timestamp;P1;durP1;ratioP1;P2;durP2;ratioP2
9657;SDS011;4867;48.112;11.622;2023-03-23T00:02:25;5.03;;;3.73;;
9657;SDS011;4867;48.112;11.622;2023-03-23T00:04:52;4.83;;;3.30;;
9657;SDS011;4867;48.112;11.622;2023-03-23T00:07:20;3.47;;;3.17;;
9657;SDS011;4867;48.112;11.622;2023-03-23T00:09:47;4.13;;;3.63;;
9657;SDS011;4867;48.112;11.622;2023-03-23T00:12:23;4.90;;;3.70;;
9657;SDS011;4867;48.112;11.622;2023-03-23T00:15:03;4.60;;;4.00;;
9657;SDS011;4867;48.112;11.622;2023-03-23T00:17:31;5.37;;;3.83;;
9657;SDS011;4867;48.112;11.622;2023-03-23T00:20:02;3.93;;;3.17;;
9657;SDS011;4867;48.112;11.622;2023-03-23T00:22:31;4.20;;;3.60;;
9657;SDS011;4867;48.112;11.622;2023-03-23T00:25:06;4.23;;;3.50;;
9657;SDS011;4867;48.112;11.622;2023-03-23T00:27:34;5.03;;;3.57;;
9657;SDS011;4867;48.112;11.622;2023-03-23T00:30:00;4.77;;;3.40;;
9657;SDS011;4867;48.112;11.622;2023-03-23T00:32:27;6.27;;;3.43;;
9657;SDS011;4867;48.112;11.622;2023-03-23T00:34:54;5.37;;;3.40;;
9657;SDS011;4867;48.112;11.622;2023-03-23T00:37:24;4.70;;;3.30;;
9657;SDS011;4867;48.112;11.622;2023-03-23T00:39:51;4.83;;;3.57;;
9657;SDS011;4867;48.112;11.622;2023-03-23T00:42:17;4.13;;;3.17;;
9657;SDS011;4867;48.112;11.622;2023-03-23T00:44:43;4.33;;;3.00;;
9657;SDS011;4867;48.112;11.622;2023-03-23T00:47:10;4.63;;;3.20;;
9657;SDS011;4867;48.112;11.622;2023-03-23T00:49:38;3.47;;;3.17;;
9657;SDS011;4867;48.112;11.622;2023-03-23T00:52:05;6.00;;;3.73;;
9657;SDS011;4867;48.112;11.622;2023-03-23T00:54:31;4.87;;;3.50;;
9657;SDS011;4867;48.112;11.622;2023-03-23T00:56:59;3.90;;;3.20;;
9657;SDS011;4867;48.112;11.622;2023-03-23T00:59:26;4.73;;;3.10;;
9657;SDS011;4867;48.112;11.622;2023-03-23T01:01:52;5.67;;;3.10;;
9657;SDS011;4867;48.112;11.622;2023-03-23T01:04:18;4.20;;;3.23;;
9657;SDS011;4867;48.112;11.622;2023-03-23T01:06:48;4.67;;;3.33;;
9657;SDS011;4867;48.112;11.622;2023-03-23T01:09:16;4.53;;;2.93;;
9657;SDS011;4867;48.112;11.622;2023-03-23T01:11:48;5.30;;;3.10;;
9657;SDS011;4867;48.112;11.622;2023-03-23T01:14:17;3.97;;;3.23;;
9657;SDS011;4867;48.112;11.622;2023-03-23T01:16:44;4.50;;;3.20;;
9657;SDS011;4867;48.112;11.622;2023-03-23T01:19:11;4.83;;;3.40;;
9657;SDS011;4867;48.112;11.622;2023-03-23T01:21:37;4.80;;;3.00;;
9657;SDS011;4867;48.112;11.622;2023-03-23T01:24:04;4.07;;;3.07;;
9657;SDS011;4867;48.112;11.622;2023-03-23T01:26:30;3.60;;;2.83;;
9657;SDS011;4867;48.112;11.622;2023-03-23T01:28:56;4.17;;;3.03;;
9657;SDS011;4867;48.112;11.622;2023-03-23T01:31:24;4.80;;;3.10;;
9657;SDS011;4867;48.112;11.622;2023-03-23T01:33:51;4.40;;;2.90;;
9657;SDS011;4867;48.112;11.622;2023-03-23T01:36:26;5.07;;;3.63;;
9657;SDS011;4867;48.112;11.622;2023-03-23T01:39:00;4.03;;;2.97;;
9657;SDS011;4867;48.112;11.622;2023-03-23T01:41:29;5.87;;;3.10;;
9657;SDS011;4867;48.112;11.622;2023-03-23T01:43:59;5.13;;;3.70;;
9657;SDS011;4867;48.112;11.622;2023-03-23T01:46:30;5.80;;;2.90;;
9657;SDS011;4867;48.112;11.622;2023-03-23T01:49:00;4.30;;;2.90;;
9657;SDS011;4867;48.112;11.622;2023-03-23T01:51:42;3.53;;;2.90;;
9657;SDS011;4867;48.112;11.622;2023-03-23T01:54:13;3.57;;;3.17;;
9657;SDS011;4867;48.112;11.622;2023-03-23T01:56:50;3.57;;;2.87;;
9657;SDS011;4867;48.112;11.622;2023-03-23T01:59:27;4.67;;;2.73;;
9657;SDS011;4867;48.112;11.622;2023-03-23T02:02:17;4.20;;;3.00;;
9657;SDS011;4867;48.112;11.622;2023-03-23T02:04:48;3.33;;;2.50;;
9657;SDS011;4867;48.112;11.622;2023-03-23T02:07:15;3.40;;;2.67;;
9657;SDS011;4867;48.112;11.622;2023-03-23T02:09:45;3.47;;;3.10;;
9657;SDS011;4867;48.112;11.622;2023-03-23T02:12:11;3.53;;;3.17;;
9657;SDS011;4867;48.112;11.622;2023-03-23T02:14:38;3.20;;;2.90;;
9657;SDS011;4867;48.112;11.622;2023-03-23T02:17:17;4.00;;;2.60;;
9657;SDS011;4867;48.112;11.622;2023-03-23T02:20:19;3.83;;;2.93;;
9657;SDS011;4867;48.112;11.622;2023-03-23T02:23:13;3.77;;;2.90;;
9657;SDS011;4867;48.112;11.622;2023-03-23T02:34:35;3.80;;;3.40;;
9657;SDS011;4867;48.112;11.622;2023-03-23T02:40:05;3.97;;;3.00;;
9657;SDS011;4867;48.112;11.622;2023-03-23T02:42:38;3.83;;;2.70;;
9657;SDS011;4867;48.112;11.622;2023-03-23T02:45:08;3.13;;;2.83;;
9657;SDS011;4867;48.112;11.622;2023-03-23T02:47:37;3.27;;;2.90;;
9657;SDS011;4867;48.112;11.622;2023-03-23T02:50:05;3.93;;;2.60;;
9657;SDS011;4867;48.112;11.622;2023-03-23T02:52:36;3.33;;;2.60;;
9657;SDS011;4867;48.112;11.622;2023-03-23T02:55:05;4.10;;;3.00;;
9657;SDS011;4867;48.112;11.622;2023-03-23T02:57:33;4.20;;;2.70;;
9657;SDS011;4867;48.112;11.622;2023-03-23T03:00:03;3.47;;;3.07;;
9657;SDS011;4867;48.112;11.622;2023-03-23T03:02:40;3.17;;;2.60;;
9657;SDS011;4867;48.112;11.622;2023-03-23T03:05:19;4.13;;;2.90;;
9657;SDS011;4867;48.112;11.622;2023-03-23T03:10:24;3.23;;;2.90;;
9657;SDS011;4867;48.112;11.622;2023-03-23T03:18:24;4.30;;;2.80;;
9657;SDS011;4867;48.112;11.622;2023-03-23T03:20:58;4.83;;;3.00;;
9657;SDS011;4867;48.112;11.622;2023-03-23T03:23:31;3.50;;;2.90;;
9657;SDS011;4867;48.112;11.622;2023-03-23T03:26:02;4.10;;;2.50;;
9657;SDS011;4867;48.112;11.622;2023-03-23T03:28:41;3.43;;;2.80;;
9657;SDS011;4867;48.112;11.622;2023-03-23T03:31:15;2.83;;;2.53;;
9657;SDS011;4867;48.112;11.622;2023-03-23T03:33:44;3.10;;;2.60;;
9657;SDS011;4867;48.112;11.622;2023-03-23T03:36:15;2.83;;;2.53;;
9657;SDS011;4867;48.112;11.622;2023-03-23T03:38:53;3.20;;;2.60;;
9657;SDS011;4867;48.112;11.622;2023-03-23T03:41:23;4.80;;;2.70;;
9657;SDS011;4867;48.112;11.622;2023-03-23T03:43:50;2.73;;;2.40;;
9657;SDS011;4867;48.112;11.622;2023-03-23T03:46:16;3.53;;;2.50;;
9657;SDS011;4867;48.112;11.622;2023-03-23T03:48:42;3.83;;;2.67;;
9657;SDS011;4867;48.112;11.622;2023-03-23T03:51:08;4.17;;;2.90;;
9657;SDS011;4867;48.112;11.622;2023-03-23T03:53:37;3.93;;;2.60;;
9657;SDS011;4867;48.112;11.622;2023-03-23T03:56:05;4.23;;;2.90;;
9657;SDS011;4867;48.112;11.622;2023-03-23T03:58:40;4.10;;;3.00;;
9657;SDS011;4867;48.112;11.622;2023-03-23T04:01:30;2.90;;;2.53;;
9657;SDS011;4867;48.112;11.622;2023-03-23T04:03:56;3.27;;;2.67;;
9657;SDS011;4867;48.112;11.622;2023-03-23T04:06:30;3.53;;;2.50;;
9657;SDS011;4867;48.112;11.622;2023-03-23T04:08:58;4.47;;;2.83;;
9657;SDS011;4867;48.112;11.622;2023-03-23T04:11:26;3.23;;;2.57;;
9657;SDS011;4867;48.112;11.622;2023-03-23T04:14:02;3.07;;;2.53;;
9657;SDS011;4867;48.112;11.622;2023-03-23T04:16:39;4.23;;;2.53;;
9657;SDS011;4867;48.112;11.622;2023-03-23T04:19:06;4.10;;;2.77;;
9657;SDS011;4867;48.112;11.622;2023-03-23T04:21:33;2.80;;;2.20;;
9657;SDS011;4867;48.112;11.622;2023-03-23T04:24:00;3.70;;;2.13;;
9657;SDS011;4867;48.112;11.622;2023-03-23T04:26:27;5.03;;;2.40;;
9657;SDS011;4867;48.112;11.622;2023-03-23T04:29:03;4.50;;;2.40;;
9657;SDS011;4867;48.112;11.622;2023-03-23T04:31:52;3.63;;;2.60;;
9657;SDS011;4867;48.112;11.622;2023-03-23T04:34:36;4.83;;;2.33;;
9657;SDS011;4867;48.112;11.622;2023-03-23T04:37:02;3.27;;;2.80;;
9657;SDS011;4867;48.112;11.622;2023-03-23T04:39:30;3.83;;;2.87;;
9657;SDS011;4867;48.112;11.622;2023-03-23T04:42:01;3.27;;;2.30;;
9657;SDS011;4867;48.112;11.622;2023-03-23T04:44:51;2.90;;;2.30;;
9657;SDS011;4867;48.112;11.622;2023-03-23T04:47:26;3.13;;;2.80;;
9657;SDS011;4867;48.112;11.622;2023-03-23T04:49:58;4.17;;;2.83;;
9657;SDS011;4867;48.112;11.622;2023-03-23T04:52:32;4.27;;;2.90;;
9657;SDS011;4867;48.112;11.622;2023-03-23T04:55:02;2.80;;;2.60;;
9657;SDS011;4867;48.112;11.622;2023-03-23T04:57:34;3.30;;;2.27;;
9657;SDS011;4867;48.112;11.622;2023-03-23T05:00:24;5.90;;;2.60;;
9657;SDS011;4867;48.112;11.622;2023-03-23T05:02:53;4.00;;;2.60;;
9657;SDS011;4867;48.112;11.622;2023-03-23T05:05:23;4.70;;;2.90;;
9657;SDS011;4867;48.112;11.622;2023-03-23T05:07:53;2.53;;;2.33;;
9657;SDS011;4867;48.112;11.622;2023-03-23T05:10:22;5.57;;;2.63;;
9657;SDS011;4867;48.112;11.622;2023-03-23T05:12:52;4.43;;;2.40;;
9657;SDS011;4867;48.112;11.622;2023-03-23T05:15:19;4.03;;;2.80;;
9657;SDS011;4867;48.112;11.622;2023-03-23T05:17:46;3.90;;;2.47;;
9657;SDS011;4867;48.112;11.622;2023-03-23T05:20:18;4.97;;;2.43;;
9657;SDS011;4867;48.112;11.622;2023-03-23T05:22:48;2.80;;;2.60;;
9657;SDS011;4867;48.112;11.622;2023-03-23T05:25:18;4.40;;;2.70;;
9657;SDS011;4867;48.112;11.622;2023-03-23T05:27:48;4.47;;;2.80;;
9657;SDS011;4867;48.112;11.622;2023-03-23T05:30:30;5.03;;;2.50;;
9657;SDS011;4867;48.112;11.622;2023-03-23T05:32:57;3.43;;;2.60;;
9657;SDS011;4867;48.112;11.622;2023-03-23T05:35:40;2.80;;;2.60;;
9657;SDS011;4867;48.112;11.622;2023-03-23T05:38:07;4.97;;;2.53;;
9657;SDS011;4867;48.112;11.622;2023-03-23T05:40:34;3.33;;;2.43;;
9657;SDS011;4867;48.112;11.622;2023-03-23T05:43:08;3.67;;;2.87;;
9657;SDS011;4867;48.112;11.622;2023-03-23T05:45:51;5.03;;;2.60;;
9657;SDS011;4867;48.112;11.622;2023-03-23T05:48:17;4.07;;;2.50;;
9657;SDS011;4867;48.112;11.622;2023-03-23T05:50:43;2.70;;;2.50;;
9657;SDS011;4867;48.112;11.622;2023-03-23T05:53:10;3.00;;;2.70;;
9657;SDS011;4867;48.112;11.622;2023-03-23T05:55:39;4.23;;;2.93;;
9657;SDS011;4867;48.112;11.622;2023-03-23T05:58:15;4.57;;;2.70;;
9657;SDS011;4867;48.112;11.622;2023-03-23T06:00:44;10.07;;;3.00;;
9657;SDS011;4867;48.112;11.622;2023-03-23T06:03:26;9.13;;;3.07;;
9657;SDS011;4867;48.112;11.622;2023-03-23T06:06:00;7.10;;;2.93;;
9657;SDS011;4867;48.112;11.622;2023-03-23T06:08:41;4.67;;;2.97;;
9657;SDS011;4867;48.112;11.622;2023-03-23T06:11:08;7.03;;;3.00;;
9657;SDS011;4867;48.112;11.622;2023-03-23T06:13:41;4.33;;;2.73;;
9657;SDS011;4867;48.112;11.622;2023-03-23T06:16:09;4.73;;;2.80;;
9657;SDS011;4867;48.112;11.622;2023-03-23T06:18:48;3.67;;;2.50;;
9657;SDS011;4867;48.112;11.622;2023-03-23T06:21:28;5.40;;;2.60;;
9657;SDS011;4867;48.112;11.622;2023-03-23T06:24:00;4.33;;;2.90;;
9657;SDS011;4867;48.112;11.622;2023-03-23T06:26:34;3.90;;;2.40;;
9657;SDS011;4867;48.112;11.622;2023-03-23T06:29:05;3.83;;;2.90;;
9657;SDS011;4867;48.112;11.622;2023-03-23T06:31:38;4.23;;;2.40;;
9657;SDS011;4867;48.112;11.622;2023-03-23T06:34:07;10.07;;;3.30;;
9657;SDS011;4867;48.112;11.622;2023-03-23T06:36:54;11.30;;;2.90;;
9657;SDS011;4867;48.112;11.622;2023-03-23T06:39:31;7.83;;;3.30;;
9657;SDS011;4867;48.112;11.622;2023-03-23T06:42:09;13.10;;;3.13;;
9657;SDS011;4867;48.112;11.622;2023-03-23T06:44:45;10.23;;;2.87;;
9657;SDS011;4867;48.112;11.622;2023-03-23T06:47:12;13.40;;;3.73;;
9657;SDS011;4867;48.112;11.622;2023-03-23T06:49:45;18.40;;;4.10;;
9657;SDS011;4867;48.112;11.622;2023-03-23T06:52:21;7.43;;;3.37;;
9657;SDS011;4867;48.112;11.622;2023-03-23T06:54:49;6.13;;;2.70;;
9657;SDS011;4867;48.112;11.622;2023-03-23T06:57:18;4.70;;;2.97;;
9657;SDS011;4867;48.112;11.622;2023-03-23T06:59:46;4.87;;;2.50;;
9657;SDS011;4867;48.112;11.622;2023-03-23T07:02:13;6.23;;;2.73;;
9657;SDS011;4867;48.112;11.622;2023-03-23T07:04:42;4.23;;;2.60;;
9657;SDS011;4867;48.112;11.622;2023-03-23T07:07:17;3.50;;;2.60;;
9657;SDS011;4867;48.112;11.622;2023-03-23T07:10:00;4.77;;;2.40;;
9657;SDS011;4867;48.112;11.622;2023-03-23T07:12:28;4.30;;;2.57;;
9657;SDS011;4867;48.112;11.622;2023-03-23T07:14:55;4.23;;;2.43;;
9657;SDS011;4867;48.112;11.622;2023-03-23T07:17:21;3.20;;;2.27;;
9657;SDS011;4867;48.112;11.622;2023-03-23T07:20:01;6.03;;;2.60;;
9657;SDS011;4867;48.112;11.622;2023-03-23T07:22:29;4.43;;;2.60;;
9657;SDS011;4867;48.112;11.622;2023-03-23T07:25:04;6.23;;;3.00;;
9657;SDS011;4867;48.112;11.622;2023-03-23T07:27:41;4.27;;;3.00;;
9657;SDS011;4867;48.112;11.622;2023-03-23T07:30:09;4.07;;;3.13;;
9657;SDS011;4867;48.112;11.622;2023-03-23T07:32:36;4.37;;;2.20;;
9657;SDS011;4867;48.112;11.622;2023-03-23T07:35:02;3.23;;;2.20;;
9657;SDS011;4867;48.112;11.622;2023-03-23T07:37:41;3.43;;;2.70;;
9657;SDS011;4867;48.112;11.622;2023-03-23T07:40:07;3.13;;;2.47;;
9657;SDS011;4867;48.112;11.622;2023-03-23T07:42:42;4.50;;;2.50;;
9657;SDS011;4867;48.112;11.622;2023-03-23T07:45:12;3.10;;;2.60;;
9657;SDS011;4867;48.112;11.622;2023-03-23T07:47:39;3.03;;;2.50;;
9657;SDS011;4867;48.112;11.622;2023-03-23T07:50:06;3.37;;;2.40;;
9657;SDS011;4867;48.112;11.622;2023-03-23T07:52:37;5.27;;;4.60;;
9657;SDS011;4867;48.112;11.622;2023-03-23T07:55:05;3.80;;;2.57;;
9657;SDS011;4867;48.112;11.622;2023-03-23T07:57:44;3.77;;;2.90;;
9657;SDS011;4867;48.112;11.622;2023-03-23T08:00:12;4.00;;;2.50;;
9657;SDS011;4867;48.112;11.622;2023-03-23T08:02:46;5.60;;;2.73;;
9657;SDS011;4867;48.112;11.622;2023-03-23T08:05:28;4.83;;;2.93;;
9657;SDS011;4867;48.112;11.622;2023-03-23T08:08:13;6.57;;;4.60;;
9657;SDS011;4867;48.112;11.622;2023-03-23T08:10:40;4.90;;;2.73;;
9657;SDS011;4867;48.112;11.622;2023-03-23T08:13:26;4.97;;;3.73;;
9657;SDS011;4867;48.112;11.622;2023-03-23T08:16:19;5.33;;;2.67;;
9657;SDS011;4867;48.112;11.622;2023-03-23T08:18:48;3.93;;;3.10;;
9657;SDS011;4867;48.112;11.622;2023-03-23T08:21:34;9.03;;;4.90;;
9657;SDS011;4867;48.112;11.622;2023-03-23T08:24:19;4.93;;;4.03;;
9657;SDS011;4867;48.112;11.622;2023-03-23T08:26:54;7.60;;;2.73;;
9657;SDS011;4867;48.112;11.622;2023-03-23T08:29:20;3.87;;;2.60;;
9657;SDS011;4867;48.112;11.622;2023-03-23T08:32:04;4.47;;;2.90;;
9657;SDS011;4867;48.112;11.622;2023-03-23T08:34:42;5.87;;;2.70;;
9657;SDS011;4867;48.112;11.622;2023-03-23T08:37:27;4.07;;;2.57;;
9657;SDS011;4867;48.112;11.622;2023-03-23T08:40:12;2.97;;;2.30;;
9657;SDS011;4867;48.112;11.622;2023-03-23T08:42:46;5.33;;;2.30;;
9657;SDS011;4867;48.112;11.622;2023-03-23T08:45:33;4.40;;;3.10;;
9657;SDS011;4867;48.112;11.622;2023-03-23T08:48:09;4.27;;;2.93;;
9657;SDS011;4867;48.112;11.622;2023-03-23T08:50:54;6.30;;;4.10;;
9657;SDS011;4867;48.112;11.622;2023-03-23T08:53:39;5.80;;;2.67;;
9657;SDS011;4867;48.112;11.622;2023-03-23T08:56:24;4.33;;;2.80;;
9657;SDS011;4867;48.112;11.622;2023-03-23T08:59:16;4.27;;;2.67;;
9657;SDS011;4867;48.112;11.622;2023-03-23T09:02:01;5.20;;;3.10;;
9657;SDS011;4867;48.112;11.622;2023-03-23T09:04:42;5.07;;;3.73;;
9657;SDS011;4867;48.112;11.622;2023-03-23T09:07:29;3.13;;;2.63;;
9657;SDS011;4867;48.112;11.622;2023-03-23T09:09:55;5.03;;;2.50;;
9657;SDS011;4867;48.112;11.622;2023-03-23T09:12:21;4.27;;;2.50;;
9657;SDS011;4867;48.112;11.622;2023-03-23T09:14:48;5.07;;;2.30;;
9657;SDS011;4867;48.112;11.622;2023-03-23T09:17:15;4.67;;;2.40;;
9657;SDS011;4867;48.112;11.622;2023-03-23T09:19:41;4.40;;;2.40;;
9657;SDS011;4867;48.112;11.622;2023-03-23T09:22:07;3.50;;;2.53;;
9657;SDS011;4867;48.112;11.622;2023-03-23T09:24:34;2.93;;;2.50;;
9657;SDS011;4867;48.112;11.622;2023-03-23T09:27:00;3.90;;;2.57;;
9657;SDS011;4867;48.112;11.622;2023-03-23T09:29:26;4.27;;;2.50;;
9657;SDS011;4867;48.112;11.622;2023-03-23T09:31:53;4.73;;;2.70;;
9657;SDS011;4867;48.112;11.622;2023-03-23T09:34:19;6.67;;;3.20;;
9657;SDS011;4867;48.112;11.622;2023-03-23T09:36:49;3.97;;;2.77;;
9657;SDS011;4867;48.112;11.622;2023-03-23T09:39:15;4.13;;;3.07;;
9657;SDS011;4867;48.112;11.622;2023-03-23T09:41:56;4.57;;;3.40;;
9657;SDS011;4867;48.112;11.622;2023-03-23T09:47:16;4.97;;;3.07;;
9657;SDS011;4867;48.112;11.622;2023-03-23T09:50:18;6.60;;;3.20;;
9657;SDS011;4867;48.112;11.622;2023-03-23T09:52:49;6.23;;;4.57;;
9657;SDS011;4867;48.112;11.622;2023-03-23T09:55:30;4.03;;;3.10;;
9657;SDS011;4867;48.112;11.622;2023-03-23T10:00:47;3.67;;;3.20;;
9657;SDS011;4867;48.112;11.622;2023-03-23T10:03:37;3.23;;;2.93;;
9657;SDS011;4867;48.112;11.622;2023-03-23T10:06:09;5.73;;;3.30;;
9657;SDS011;4867;48.112;11.622;2023-03-23T10:08:48;4.03;;;3.17;;
9657;SDS011;4867;48.112;11.622;2023-03-23T10:11:23;3.97;;;3.50;;
9657;SDS011;4867;48.112;11.622;2023-03-23T10:14:07;4.63;;;3.43;;
9657;SDS011;4867;48.112;11.622;2023-03-23T10:19:35;5.17;;;3.73;;
9657;SDS011;4867;48.112;11.622;2023-03-23T10:22:14;4.47;;;3.70;;
9657;SDS011;4867;48.112;11.622;2023-03-23T10:27:38;5.13;;;4.40;;
9657;SDS011;4867;48.112;11.622;2023-03-23T10:35:14;6.53;;;4.40;;
9657;SDS011;4867;48.112;11.622;2023-03-23T10:37:47;5.43;;;4.40;;
9657;SDS011;4867;48.112;11.622;2023-03-23T10:40:19;5.77;;;4.73;;
9657;SDS011;4867;48.112;11.622;2023-03-23T10:42:49;6.47;;;5.80;;
9657;SDS011;4867;48.112;11.622;2023-03-23T10:45:29;5.43;;;4.90;;
9657;SDS011;4867;48.112;11.622;2023-03-23T10:48:17;6.73;;;5.00;;
9657;SDS011;4867;48.112;11.622;2023-03-23T10:50:49;6.20;;;5.03;;
9657;SDS011;4867;48.112;11.622;2023-03-23T10:53:21;8.43;;;5.23;;
9657;SDS011;4867;48.112;11.622;2023-03-23T10:55:53;5.80;;;5.30;;
9657;SDS011;4867;48.112;11.622;2023-03-23T10:58:26;6.87;;;4.40;;
9657;SDS011;4867;48.112;11.622;2023-03-23T11:00:55;7.40;;;4.87;;
9657;SDS011;4867;48.112;11.622;2023-03-23T11:03:24;5.50;;;4.80;;
9657;SDS011;4867;48.112;11.622;2023-03-23T11:05:53;7.87;;;5.57;;
9657;SDS011;4867;48.112;11.622;2023-03-23T11:08:32;5.83;;;5.20;;
9657;SDS011;4867;48.112;11.622;2023-03-23T11:11:17;4.97;;;4.50;;
9657;SDS011;4867;48.112;11.622;2023-03-23T11:13:45;4.90;;;4.40;;
9657;SDS011;4867;48.112;11.622;2023-03-23T11:16:22;6.10;;;4.57;;
9657;SDS011;4867;48.112;11.622;2023-03-23T11:18:50;6.90;;;4.10;;
9657;SDS011;4867;48.112;11.622;2023-03-23T11:21:19;5.20;;;4.30;;
9657;SDS011;4867;48.112;11.622;2023-03-23T11:23:48;5.47;;;4.40;;
9657;SDS011;4867;48.112;11.622;2023-03-23T11:31:41;4.77;;;3.80;;
9657;SDS011;4867;48.112;11.622;2023-03-23T11:39:26;5.93;;;3.80;;
9657;SDS011;4867;48.112;11.622;2023-03-23T11:41:57;4.90;;;3.60;;
9657;SDS011;4867;48.112;11.622;2023-03-23T11:44:31;5.53;;;4.10;;
9657;SDS011;4867;48.112;11.622;2023-03-23T11:47:13;4.50;;;3.83;;
9657;SDS011;4867;48.112;11.622;2023-03-23T11:55:14;8.83;;;4.07;;
9657;SDS011;4867;48.112;11.622;2023-03-23T11:57:56;7.63;;;3.77;;
9657;SDS011;4867;48.112;11.622;2023-03-23T12:00:27;4.20;;;3.80;;
9657;SDS011;4867;48.112;11.622;2023-03-23T12:02:59;4.93;;;3.70;;
9657;SDS011;4867;48.112;11.622;2023-03-23T12:11:17;4.47;;;4.07;;
9657;SDS011;4867;48.112;11.622;2023-03-23T12:14:00;4.07;;;3.67;;
9657;SDS011;4867;48.112;11.622;2023-03-23T12:16:50;6.43;;;4.50;;
9657;SDS011;4867;48.112;11.622;2023-03-23T12:19:36;5.80;;;4.63;;
9657;SDS011;4867;48.112;11.622;2023-03-23T12:33:55;5.90;;;4.23;;
9657;SDS011;4867;48.112;11.622;2023-03-23T12:44:58;4.47;;;3.83;;
9657;SDS011;4867;48.112;11.622;2023-03-23T12:47:42;4.37;;;3.97;;
9657;SDS011;4867;48.112;11.622;2023-03-23T12:52:50;4.93;;;3.70;;
9657;SDS011;4867;48.112;11.622;2023-03-23T12:55:25;4.67;;;3.40;;
9657;SDS011;4867;48.112;11.622;2023-03-23T13:00:27;6.23;;;4.63;;
9657;SDS011;4867;48.112;11.622;2023-03-23T13:06:17;6.10;;;4.80;;
9657;SDS011;4867;48.112;11.622;2023-03-23T13:08:54;4.67;;;3.27;;
9657;SDS011;4867;48.112;11.622;2023-03-23T13:11:35;7.73;;;3.47;;
9657;SDS011;4867;48.112;11.622;2023-03-23T13:19:33;3.20;;;2.90;;
9657;SDS011;4867;48.112;11.622;2023-03-23T13:22:23;3.97;;;3.37;;
9657;SDS011;4867;48.112;11.622;2023-03-23T13:24:55;4.03;;;2.50;;
9657;SDS011;4867;48.112;11.622;2023-03-23T13:27:25;4.73;;;2.23;;
9657;SDS011;4867;48.112;11.622;2023-03-23T13:29:56;3.83;;;2.53;;
9657;SDS011;4867;48.112;11.622;2023-03-23T13:32:36;4.93;;;2.47;;
9657;SDS011;4867;48.112;11.622;2023-03-23T13:35:10;2.80;;;2.50;;
9657;SDS011;4867;48.112;11.622;2023-03-23T13:37:44;2.73;;;2.27;;
9657;SDS011;4867;48.112;11.622;2023-03-23T13:40:25;3.23;;;2.50;;
9657;SDS011;4867;48.112;11.622;2023-03-23T13:42:54;3.30;;;2.13;;
9657;SDS011;4867;48.112;11.622;2023-03-23T13:48:18;3.80;;;2.40;;
9657;SDS011;4867;48.112;11.622;2023-03-23T13:53:28;4.03;;;2.70;;
9657;SDS011;4867;48.112;11.622;2023-03-23T13:56:05;3.77;;;2.30;;
9657;SDS011;4867;48.112;11.622;2023-03-23T13:59:13;2.80;;;2.30;;
9657;SDS011;4867;48.112;11.622;2023-03-23T14:01:37;4.33;;;2.47;;
9657;SDS011;4867;48.112;11.622;2023-03-23T14:04:30;3.40;;;3.10;;
9657;SDS011;4867;48.112;11.622;2023-03-23T14:07:07;3.10;;;2.53;;
9657;SDS011;4867;48.112;11.622;2023-03-23T14:09:39;4.30;;;2.50;;
9657;SDS011;4867;48.112;11.622;2023-03-23T14:12:18;3.70;;;2.23;;
9657;SDS011;4867;48.112;11.622;2023-03-23T14:14:49;2.90;;;2.60;;
9657;SDS011;4867;48.112;11.622;2023-03-23T14:17:24;3.73;;;2.60;;
9657;SDS011;4867;48.112;11.622;2023-03-23T14:19:53;2.57;;;2.37;;
9657;SDS011;4867;48.112;11.622;2023-03-23T14:25:00;4.00;;;2.53;;
9657;SDS011;4867;48.112;11.622;2023-03-23T14:27:34;4.60;;;2.50;;
9657;SDS011;4867;48.112;11.622;2023-03-23T14:30:05;3.17;;;2.27;;
9657;SDS011;4867;48.112;11.622;2023-03-23T14:32:33;5.23;;;2.50;;
9657;SDS011;4867;48.112;11.622;2023-03-23T14:35:04;4.50;;;2.20;;
9657;SDS011;4867;48.112;11.622;2023-03-23T14:37:34;2.77;;;2.20;;
9657;SDS011;4867;48.112;11.622;2023-03-23T14:40:01;3.57;;;2.30;;
9657;SDS011;4867;48.112;11.622;2023-03-23T14:42:32;3.40;;;2.30;;
9657;SDS011;4867;48.112;11.622;2023-03-23T14:45:01;3.67;;;2.10;;
9657;SDS011;4867;48.112;11.622;2023-03-23T14:47:31;3.10;;;2.47;;
9657;SDS011;4867;48.112;11.622;2023-03-23T14:50:03;3.30;;;2.43;;
9657;SDS011;4867;48.112;11.622;2023-03-23T14:52:35;2.70;;;2.37;;
9657;SDS011;4867;48.112;11.622;2023-03-23T14:55:12;4.37;;;2.10;;
9657;SDS011;4867;48.112;11.622;2023-03-23T14:57:43;3.43;;;2.07;;
9657;SDS011;4867;48.112;11.622;2023-03-23T15:00:14;3.70;;;2.30;;
9657;SDS011;4867;48.112;11.622;2023-03-23T15:02:45;3.33;;;2.10;;
9657;SDS011;4867;48.112;11.622;2023-03-23T15:05:19;2.77;;;2.40;;
9657;SDS011;4867;48.112;11.622;2023-03-23T15:08:02;2.80;;;2.13;;
9657;SDS011;4867;48.112;11.622;2023-03-23T15:10:31;3.37;;;2.60;;
9657;SDS011;4867;48.112;11.622;2023-03-23T15:12:58;4.07;;;2.60;;
9657;SDS011;4867;48.112;11.622;2023-03-23T15:15:34;5.60;;;2.80;;
9657;SDS011;4867;48.112;11.622;2023-03-23T15:18:02;4.97;;;2.30;;
9657;SDS011;4867;48.112;11.622;2023-03-23T15:20:49;16.10;;;8.87;;
9657;SDS011;4867;48.112;11.622;2023-03-23T15:23:16;4.27;;;2.80;;
9657;SDS011;4867;48.112;11.622;2023-03-23T15:25:48;4.77;;;2.67;;
9657;SDS011;4867;48.112;11.622;2023-03-23T15:28:18;5.90;;;2.70;;
9657;SDS011;4867;48.112;11.622;2023-03-23T15:30:51;4.13;;;2.90;;
9657;SDS011;4867;48.112;11.622;2023-03-23T15:33:20;3.33;;;2.53;;
9657;SDS011;4867;48.112;11.622;2023-03-23T15:35:52;4.60;;;2.90;;
9657;SDS011;4867;48.112;11.622;2023-03-23T15:38:21;3.33;;;2.80;;
9657;SDS011;4867;48.112;11.622;2023-03-23T15:41:23;4.97;;;3.63;;
9657;SDS011;4867;48.112;11.622;2023-03-23T15:43:54;2.70;;;2.40;;
9657;SDS011;4867;48.112;11.622;2023-03-23T15:46:34;3.17;;;2.40;;
9657;SDS011;4867;48.112;11.622;2023-03-23T15:49:10;3.10;;;2.30;;
9657;SDS011;4867;48.112;11.622;2023-03-23T15:51:36;3.80;;;2.33;;
9657;SDS011;4867;48.112;11.622;2023-03-23T15:54:03;4.80;;;2.53;;
9657;SDS011;4867;48.112;11.622;2023-03-23T15:56:33;4.03;;;2.60;;
9657;SDS011;4867;48.112;11.622;2023-03-23T15:59:00;7.90;;;2.47;;
9657;SDS011;4867;48.112;11.622;2023-03-23T16:01:28;4.13;;;2.43;;
9657;SDS011;4867;48.112;11.622;2023-03-23T16:06:50;3.80;;;3.07;;
9657;SDS011;4867;48.112;11.622;2023-03-23T16:09:19;3.73;;;2.53;;
9657;SDS011;4867;48.112;11.622;2023-03-23T16:11:46;3.00;;;2.30;;
9657;SDS011;4867;48.112;11.622;2023-03-23T16:14:13;3.00;;;2.70;;
9657;SDS011;4867;48.112;11.622;2023-03-23T16:16:45;3.20;;;2.80;;
9657;SDS011;4867;48.112;11.622;2023-03-23T16:19:18;6.03;;;2.57;;
9657;SDS011;4867;48.112;11.622;2023-03-23T16:21:49;3.93;;;2.50;;
9657;SDS011;4867;48.112;11.622;2023-03-23T16:24:17;5.70;;;2.80;;
9657;SDS011;4867;48.112;11.622;2023-03-23T16:26:44;3.43;;;2.30;;
9657;SDS011;4867;48.112;11.622;2023-03-23T16:29:13;3.93;;;2.33;;
9657;SDS011;4867;48.112;11.622;2023-03-23T16:32:02;2.60;;;2.40;;
9657;SDS011;4867;48.112;11.622;2023-03-23T16:34:29;4.93;;;2.50;;
9657;SDS011;4867;48.112;11.622;2023-03-23T16:36:59;3.90;;;2.70;;
9657;SDS011;4867;48.112;11.622;2023-03-23T16:39:26;2.93;;;2.50;;
9657;SDS011;4867;48.112;11.622;2023-03-23T16:41:54;4.30;;;2.60;;
9657;SDS011;4867;48.112;11.622;2023-03-23T16:44:21;3.70;;;2.53;;
9657;SDS011;4867;48.112;11.622;2023-03-23T16:46:48;3.60;;;2.57;;
9657;SDS011;4867;48.112;11.622;2023-03-23T16:49:15;3.03;;;2.73;;
9657;SDS011;4867;48.112;11.622;2023-03-23T16:51:43;3.90;;;2.70;;
9657;SDS011;4867;48.112;11.622;2023-03-23T16:54:10;2.93;;;2.60;;
9657;SDS011;4867;48.112;11.622;2023-03-23T16:56:37;3.77;;;2.80;;
9657;SDS011;4867;48.112;11.622;2023-03-23T16:59:05;4.50;;;3.03;;
9657;SDS011;4867;48.112;11.622;2023-03-23T17:01:32;3.17;;;2.73;;
9657;SDS011;4867;48.112;11.622;2023-03-23T17:03:59;5.40;;;2.93;;
9657;SDS011;4867;48.112;11.622;2023-03-23T17:06:26;4.67;;;4.20;;
9657;SDS011;4867;48.112;11.622;2023-03-23T17:08:53;6.57;;;3.10;;
9657;SDS011;4867;48.112;11.622;2023-03-23T17:11:21;4.17;;;2.80;;
9657;SDS011;4867;48.112;11.622;2023-03-23T17:13:48;3.10;;;2.77;;
9657;SDS011;4867;48.112;11.622;2023-03-23T17:16:15;4.10;;;3.20;;
9657;SDS011;4867;48.112;11.622;2023-03-23T17:18:42;5.20;;;3.40;;